sensor_id;sensor_type;location;lat;lon;timestamp;P1;durP1;ratioP1;P2;durP2;ratioP2
54679;SDS011;40578;53.178;5.846;2023-05-29T00:02:07;10.00;;;2.10;;
54679;SDS011;40578;53.178;5.846;2023-05-29T00:04:32;12.37;;;2.30;;
54679;SDS011;40578;53.178;5.846;2023-05-29T00:06:58;7.17;;;2.17;;
54679;SDS011;40578;53.178;5.846;2023-05-29T00:09:23;11.00;;;2.47;;
54679;SDS011;40578;53.178;5.846;2023-05-29T00:11:50;14.15;;;2.55;;
54679;SDS011;40578;53.178;5.846;2023-05-29T00:14:20;13.60;;;2.58;;
54679;SDS011;40578;53.178;5.846;2023-05-29T00:16:47;14.93;;;2.72;;
54679;SDS011;40578;53.178;5.846;2023-05-29T00:19:14;7.72;;;2.28;;
54679;SDS011;40578;53.178;5.846;2023-05-29T00:21:42;13.80;;;2.20;;
54679;SDS011;40578;53.178;5.846;2023-05-29T00:24:07;11.55;;;2.50;;
54679;SDS011;40578;53.178;5.846;2023-05-29T00:26:33;13.77;;;2.30;;
54679;SDS011;40578;53.178;5.846;2023-05-29T00:28:59;12.60;;;2.93;;
54679;SDS011;40578;53.178;5.846;2023-05-29T00:31:24;17.07;;;2.70;;
54679;SDS011;40578;53.178;5.846;2023-05-29T00:33:50;12.13;;;2.60;;
54679;SDS011;40578;53.178;5.846;2023-05-29T00:36:16;12.93;;;2.30;;
54679;SDS011;40578;53.178;5.846;2023-05-29T00:38:42;8.13;;;2.30;;
54679;SDS011;40578;53.178;5.846;2023-05-29T00:41:08;9.07;;;2.27;;
54679;SDS011;40578;53.178;5.846;2023-05-29T00:43:37;12.50;;;2.85;;
54679;SDS011;40578;53.178;5.846;2023-05-29T00:46:03;14.43;;;2.47;;
54679;SDS011;40578;53.178;5.846;2023-05-29T00:48:29;12.15;;;2.60;;
54679;SDS011;40578;53.178;5.846;2023-05-29T00:50:55;10.07;;;2.57;;
54679;SDS011;40578;53.178;5.846;2023-05-29T00:53:21;11.07;;;2.73;;
54679;SDS011;40578;53.178;5.846;2023-05-29T00:55:47;12.45;;;2.78;;
54679;SDS011;40578;53.178;5.846;2023-05-29T00:58:13;13.25;;;3.05;;
54679;SDS011;40578;53.178;5.846;2023-05-29T01:00:39;11.40;;;2.38;;
54679;SDS011;40578;53.178;5.846;2023-05-29T01:03:05;13.20;;;3.22;;
54679;SDS011;40578;53.178;5.846;2023-05-29T01:05:33;6.85;;;2.53;;
54679;SDS011;40578;53.178;5.846;2023-05-29T01:08:01;12.95;;;3.30;;
54679;SDS011;40578;53.178;5.846;2023-05-29T01:10:27;16.58;;;3.13;;
54679;SDS011;40578;53.178;5.846;2023-05-29T01:20:57;17.52;;;4.15;;
54679;SDS011;40578;53.178;5.846;2023-05-29T01:29:24;14.20;;;3.40;;
54679;SDS011;40578;53.178;5.846;2023-05-29T01:31:53;9.00;;;2.70;;
54679;SDS011;40578;53.178;5.846;2023-05-29T01:34:19;14.88;;;2.72;;
54679;SDS011;40578;53.178;5.846;2023-05-29T01:36:45;11.43;;;2.83;;
54679;SDS011;40578;53.178;5.846;2023-05-29T01:39:11;11.90;;;3.00;;
54679;SDS011;40578;53.178;5.846;2023-05-29T01:44:05;15.93;;;3.25;;
54679;SDS011;40578;53.178;5.846;2023-05-29T01:46:38;12.20;;;2.85;;
54679;SDS011;40578;53.178;5.846;2023-05-29T01:49:08;14.65;;;3.05;;
54679;SDS011;40578;53.178;5.846;2023-05-29T01:51:34;9.43;;;2.65;;
54679;SDS011;40578;53.178;5.846;2023-05-29T01:54:00;14.33;;;3.40;;
54679;SDS011;40578;53.178;5.846;2023-05-29T01:56:27;11.85;;;3.05;;
54679;SDS011;40578;53.178;5.846;2023-05-29T01:58:54;12.00;;;3.50;;
54679;SDS011;40578;53.178;5.846;2023-05-29T02:03:47;12.30;;;2.90;;
54679;SDS011;40578;53.178;5.846;2023-05-29T02:06:13;14.13;;;2.97;;
54679;SDS011;40578;53.178;5.846;2023-05-29T02:08:38;15.23;;;4.23;;
54679;SDS011;40578;53.178;5.846;2023-05-29T02:11:04;11.63;;;3.17;;
54679;SDS011;40578;53.178;5.846;2023-05-29T02:13:30;9.77;;;2.90;;
54679;SDS011;40578;53.178;5.846;2023-05-29T02:15:56;12.43;;;3.33;;
54679;SDS011;40578;53.178;5.846;2023-05-29T02:18:22;12.57;;;3.60;;
54679;SDS011;40578;53.178;5.846;2023-05-29T02:20:48;12.88;;;3.05;;
54679;SDS011;40578;53.178;5.846;2023-05-29T02:23:14;15.07;;;3.83;;
54679;SDS011;40578;53.178;5.846;2023-05-29T02:25:40;13.10;;;3.33;;
54679;SDS011;40578;53.178;5.846;2023-05-29T02:28:07;17.05;;;3.10;;
54679;SDS011;40578;53.178;5.846;2023-05-29T02:30:32;12.40;;;2.90;;
54679;SDS011;40578;53.178;5.846;2023-05-29T02:33:00;11.15;;;2.90;;
54679;SDS011;40578;53.178;5.846;2023-05-29T02:35:26;11.97;;;2.80;;
54679;SDS011;40578;53.178;5.846;2023-05-29T02:37:52;8.70;;;2.80;;
54679;SDS011;40578;53.178;5.846;2023-05-29T02:40:18;11.90;;;2.45;;
54679;SDS011;40578;53.178;5.846;2023-05-29T02:42:45;15.07;;;2.92;;
54679;SDS011;40578;53.178;5.846;2023-05-29T02:45:11;10.65;;;3.08;;
54679;SDS011;40578;53.178;5.846;2023-05-29T02:47:37;17.10;;;2.67;;
54679;SDS011;40578;53.178;5.846;2023-05-29T02:50:03;11.03;;;2.93;;
54679;SDS011;40578;53.178;5.846;2023-05-29T02:52:29;16.23;;;2.55;;
54679;SDS011;40578;53.178;5.846;2023-05-29T02:54:55;13.18;;;3.38;;
54679;SDS011;40578;53.178;5.846;2023-05-29T02:57:21;16.07;;;2.90;;
54679;SDS011;40578;53.178;5.846;2023-05-29T02:59:47;10.90;;;2.42;;
54679;SDS011;40578;53.178;5.846;2023-05-29T03:02:13;11.02;;;2.47;;
54679;SDS011;40578;53.178;5.846;2023-05-29T03:04:39;11.20;;;2.40;;
54679;SDS011;40578;53.178;5.846;2023-05-29T03:07:05;10.23;;;2.60;;
54679;SDS011;40578;53.178;5.846;2023-05-29T03:09:31;10.50;;;2.45;;
54679;SDS011;40578;53.178;5.846;2023-05-29T03:11:57;10.23;;;2.70;;
54679;SDS011;40578;53.178;5.846;2023-05-29T03:14:23;11.20;;;2.67;;
54679;SDS011;40578;53.178;5.846;2023-05-29T03:16:48;9.70;;;2.77;;
54679;SDS011;40578;53.178;5.846;2023-05-29T03:19:15;10.50;;;3.00;;
54679;SDS011;40578;53.178;5.846;2023-05-29T03:21:41;12.50;;;2.60;;
54679;SDS011;40578;53.178;5.846;2023-05-29T03:24:06;7.40;;;2.70;;
54679;SDS011;40578;53.178;5.846;2023-05-29T03:26:32;10.03;;;2.60;;
54679;SDS011;40578;53.178;5.846;2023-05-29T03:28:57;8.33;;;2.50;;
54679;SDS011;40578;53.178;5.846;2023-05-29T03:31:23;8.40;;;2.67;;
54679;SDS011;40578;53.178;5.846;2023-05-29T03:33:49;13.93;;;2.80;;
54679;SDS011;40578;53.178;5.846;2023-05-29T03:36:15;10.60;;;3.07;;
54679;SDS011;40578;53.178;5.846;2023-05-29T03:38:43;11.05;;;2.25;;
54679;SDS011;40578;53.178;5.846;2023-05-29T03:41:09;11.73;;;3.80;;
54679;SDS011;40578;53.178;5.846;2023-05-29T03:43:34;12.33;;;2.53;;
54679;SDS011;40578;53.178;5.846;2023-05-29T03:46:01;14.00;;;2.92;;
54679;SDS011;40578;53.178;5.846;2023-05-29T03:48:26;16.47;;;3.33;;
54679;SDS011;40578;53.178;5.846;2023-05-29T03:50:52;12.90;;;3.20;;
54679;SDS011;40578;53.178;5.846;2023-05-29T03:53:18;14.63;;;3.60;;
54679;SDS011;40578;53.178;5.846;2023-05-29T03:55:43;10.43;;;2.80;;
54679;SDS011;40578;53.178;5.846;2023-05-29T03:58:09;12.13;;;2.70;;
54679;SDS011;40578;53.178;5.846;2023-05-29T04:00:37;10.48;;;2.90;;
54679;SDS011;40578;53.178;5.846;2023-05-29T04:03:03;8.55;;;2.58;;
54679;SDS011;40578;53.178;5.846;2023-05-29T04:05:29;9.40;;;3.10;;
54679;SDS011;40578;53.178;5.846;2023-05-29T04:07:56;12.90;;;2.92;;
54679;SDS011;40578;53.178;5.846;2023-05-29T04:10:21;13.60;;;2.87;;
54679;SDS011;40578;53.178;5.846;2023-05-29T04:12:48;11.20;;;2.60;;
54679;SDS011;40578;53.178;5.846;2023-05-29T04:15:14;12.37;;;2.80;;
54679;SDS011;40578;53.178;5.846;2023-05-29T04:17:39;9.23;;;2.67;;
54679;SDS011;40578;53.178;5.846;2023-05-29T04:20:05;9.70;;;2.53;;
54679;SDS011;40578;53.178;5.846;2023-05-29T04:22:36;13.35;;;2.50;;
54679;SDS011;40578;53.178;5.846;2023-05-29T04:25:03;13.75;;;2.75;;
54679;SDS011;40578;53.178;5.846;2023-05-29T04:27:29;9.23;;;2.53;;
54679;SDS011;40578;53.178;5.846;2023-05-29T04:30:02;13.02;;;3.05;;
54679;SDS011;40578;53.178;5.846;2023-05-29T04:32:32;8.77;;;2.42;;
54679;SDS011;40578;53.178;5.846;2023-05-29T04:34:58;11.53;;;3.20;;
54679;SDS011;40578;53.178;5.846;2023-05-29T04:37:28;10.82;;;2.40;;
54679;SDS011;40578;53.178;5.846;2023-05-29T04:39:55;10.27;;;2.40;;
54679;SDS011;40578;53.178;5.846;2023-05-29T04:42:21;9.82;;;2.45;;
54679;SDS011;40578;53.178;5.846;2023-05-29T04:44:47;7.72;;;2.22;;
54679;SDS011;40578;53.178;5.846;2023-05-29T04:47:14;9.07;;;2.22;;
54679;SDS011;40578;53.178;5.846;2023-05-29T04:49:40;11.57;;;2.28;;
54679;SDS011;40578;53.178;5.846;2023-05-29T04:52:06;8.23;;;2.40;;
54679;SDS011;40578;53.178;5.846;2023-05-29T04:54:32;9.20;;;2.30;;
54679;SDS011;40578;53.178;5.846;2023-05-29T04:57:00;8.32;;;2.08;;
54679;SDS011;40578;53.178;5.846;2023-05-29T04:59:26;8.23;;;2.00;;
54679;SDS011;40578;53.178;5.846;2023-05-29T05:01:51;10.90;;;3.20;;
54679;SDS011;40578;53.178;5.846;2023-05-29T05:04:17;6.47;;;2.40;;
54679;SDS011;40578;53.178;5.846;2023-05-29T05:06:42;8.90;;;2.17;;
54679;SDS011;40578;53.178;5.846;2023-05-29T05:09:09;9.05;;;2.40;;
54679;SDS011;40578;53.178;5.846;2023-05-29T05:11:35;11.48;;;2.05;;
54679;SDS011;40578;53.178;5.846;2023-05-29T05:14:00;17.27;;;2.93;;
54679;SDS011;40578;53.178;5.846;2023-05-29T05:16:26;11.97;;;2.53;;
54679;SDS011;40578;53.178;5.846;2023-05-29T05:18:51;12.03;;;2.57;;
54679;SDS011;40578;53.178;5.846;2023-05-29T05:21:17;10.47;;;2.40;;
54679;SDS011;40578;53.178;5.846;2023-05-29T05:23:43;11.23;;;2.40;;
54679;SDS011;40578;53.178;5.846;2023-05-29T05:26:08;13.10;;;2.50;;
54679;SDS011;40578;53.178;5.846;2023-05-29T05:28:37;8.05;;;1.80;;
54679;SDS011;40578;53.178;5.846;2023-05-29T05:31:02;12.30;;;2.37;;
54679;SDS011;40578;53.178;5.846;2023-05-29T05:33:28;11.67;;;2.70;;
54679;SDS011;40578;53.178;5.846;2023-05-29T05:35:53;8.70;;;2.60;;
54679;SDS011;40578;53.178;5.846;2023-05-29T05:38:19;11.13;;;2.47;;
54679;SDS011;40578;53.178;5.846;2023-05-29T05:40:45;9.53;;;2.40;;
54679;SDS011;40578;53.178;5.846;2023-05-29T05:43:10;8.67;;;2.23;;
54679;SDS011;40578;53.178;5.846;2023-05-29T05:45:36;11.27;;;2.43;;
54679;SDS011;40578;53.178;5.846;2023-05-29T05:48:07;12.35;;;2.65;;
54679;SDS011;40578;53.178;5.846;2023-05-29T05:50:32;12.27;;;2.73;;
54679;SDS011;40578;53.178;5.846;2023-05-29T05:52:58;8.00;;;2.50;;
54679;SDS011;40578;53.178;5.846;2023-05-29T05:55:24;12.40;;;2.43;;
54679;SDS011;40578;53.178;5.846;2023-05-29T05:57:51;12.55;;;3.13;;
54679;SDS011;40578;53.178;5.846;2023-05-29T06:00:17;12.23;;;2.60;;
54679;SDS011;40578;53.178;5.846;2023-05-29T06:02:43;10.60;;;2.53;;
54679;SDS011;40578;53.178;5.846;2023-05-29T06:05:10;14.57;;;3.38;;
54679;SDS011;40578;53.178;5.846;2023-05-29T06:07:36;9.82;;;2.50;;
54679;SDS011;40578;53.178;5.846;2023-05-29T06:10:03;11.35;;;2.63;;
54679;SDS011;40578;53.178;5.846;2023-05-29T06:14:55;12.38;;;2.90;;
54679;SDS011;40578;53.178;5.846;2023-05-29T06:17:20;10.97;;;2.93;;
54679;SDS011;40578;53.178;5.846;2023-05-29T06:19:47;9.67;;;2.97;;
54679;SDS011;40578;53.178;5.846;2023-05-29T06:22:13;9.15;;;2.78;;
54679;SDS011;40578;53.178;5.846;2023-05-29T06:24:39;10.82;;;2.78;;
54679;SDS011;40578;53.178;5.846;2023-05-29T06:27:05;12.77;;;3.10;;
54679;SDS011;40578;53.178;5.846;2023-05-29T06:29:31;13.60;;;3.50;;
54679;SDS011;40578;53.178;5.846;2023-05-29T06:31:57;13.40;;;3.42;;
54679;SDS011;40578;53.178;5.846;2023-05-29T06:34:23;8.20;;;2.70;;
54679;SDS011;40578;53.178;5.846;2023-05-29T06:36:48;14.63;;;2.70;;
54679;SDS011;40578;53.178;5.846;2023-05-29T06:39:14;15.50;;;3.40;;
54679;SDS011;40578;53.178;5.846;2023-05-29T06:41:40;11.20;;;2.90;;
54679;SDS011;40578;53.178;5.846;2023-05-29T06:44:06;11.57;;;3.27;;
54679;SDS011;40578;53.178;5.846;2023-05-29T06:46:31;10.77;;;3.27;;
54679;SDS011;40578;53.178;5.846;2023-05-29T06:48:57;10.37;;;2.70;;
54679;SDS011;40578;53.178;5.846;2023-05-29T06:51:22;12.23;;;2.83;;
54679;SDS011;40578;53.178;5.846;2023-05-29T06:53:48;12.67;;;3.03;;
54679;SDS011;40578;53.178;5.846;2023-05-29T06:56:13;14.13;;;3.50;;
54679;SDS011;40578;53.178;5.846;2023-05-29T06:58:39;14.57;;;3.35;;
54679;SDS011;40578;53.178;5.846;2023-05-29T07:01:05;12.77;;;3.20;;
54679;SDS011;40578;53.178;5.846;2023-05-29T07:03:31;14.50;;;4.00;;
54679;SDS011;40578;53.178;5.846;2023-05-29T07:05:56;10.97;;;3.07;;
54679;SDS011;40578;53.178;5.846;2023-05-29T07:08:22;13.63;;;3.67;;
54679;SDS011;40578;53.178;5.846;2023-05-29T07:10:49;13.32;;;3.13;;
54679;SDS011;40578;53.178;5.846;2023-05-29T07:13:15;14.90;;;3.90;;
54679;SDS011;40578;53.178;5.846;2023-05-29T07:15:42;17.52;;;3.92;;
54679;SDS011;40578;53.178;5.846;2023-05-29T07:18:08;18.38;;;4.20;;
54679;SDS011;40578;53.178;5.846;2023-05-29T07:20:35;11.73;;;3.63;;
54679;SDS011;40578;53.178;5.846;2023-05-29T07:25:27;14.18;;;3.65;;
54679;SDS011;40578;53.178;5.846;2023-05-29T07:27:53;10.90;;;3.10;;
54679;SDS011;40578;53.178;5.846;2023-05-29T07:30:18;12.93;;;3.53;;
54679;SDS011;40578;53.178;5.846;2023-05-29T07:32:44;12.27;;;2.93;;
54679;SDS011;40578;53.178;5.846;2023-05-29T07:35:10;12.88;;;3.53;;
54679;SDS011;40578;53.178;5.846;2023-05-29T07:37:36;14.80;;;3.67;;
54679;SDS011;40578;53.178;5.846;2023-05-29T07:40:02;14.03;;;3.30;;
54679;SDS011;40578;53.178;5.846;2023-05-29T07:42:31;14.23;;;3.70;;
54679;SDS011;40578;53.178;5.846;2023-05-29T07:44:58;14.88;;;3.70;;
54679;SDS011;40578;53.178;5.846;2023-05-29T07:47:24;12.68;;;3.47;;
54679;SDS011;40578;53.178;5.846;2023-05-29T07:49:50;16.37;;;3.53;;
54679;SDS011;40578;53.178;5.846;2023-05-29T07:52:17;12.85;;;3.80;;
54679;SDS011;40578;53.178;5.846;2023-05-29T07:54:43;14.73;;;4.10;;
54679;SDS011;40578;53.178;5.846;2023-05-29T07:57:08;15.17;;;3.50;;
54679;SDS011;40578;53.178;5.846;2023-05-29T07:59:36;18.13;;;3.60;;
54679;SDS011;40578;53.178;5.846;2023-05-29T08:02:02;15.50;;;3.60;;
54679;SDS011;40578;53.178;5.846;2023-05-29T08:06:54;15.38;;;3.60;;
54679;SDS011;40578;53.178;5.846;2023-05-29T08:09:20;14.80;;;3.90;;
54679;SDS011;40578;53.178;5.846;2023-05-29T08:11:46;11.90;;;3.30;;
54679;SDS011;40578;53.178;5.846;2023-05-29T08:14:13;11.73;;;3.37;;
54679;SDS011;40578;53.178;5.846;2023-05-29T08:16:40;14.88;;;3.67;;
54679;SDS011;40578;53.178;5.846;2023-05-29T08:19:06;12.60;;;3.63;;
54679;SDS011;40578;53.178;5.846;2023-05-29T08:21:32;13.90;;;4.17;;
54679;SDS011;40578;53.178;5.846;2023-05-29T08:23:58;14.53;;;3.67;;
54679;SDS011;40578;53.178;5.846;2023-05-29T08:26:26;10.18;;;2.85;;
54679;SDS011;40578;53.178;5.846;2023-05-29T08:28:51;12.38;;;4.15;;
54679;SDS011;40578;53.178;5.846;2023-05-29T08:31:17;11.57;;;3.60;;
54679;SDS011;40578;53.178;5.846;2023-05-29T08:33:43;11.82;;;3.38;;
54679;SDS011;40578;53.178;5.846;2023-05-29T08:36:09;15.13;;;3.90;;
54679;SDS011;40578;53.178;5.846;2023-05-29T08:38:36;13.13;;;3.43;;
54679;SDS011;40578;53.178;5.846;2023-05-29T08:41:03;11.15;;;3.33;;
54679;SDS011;40578;53.178;5.846;2023-05-29T08:43:31;15.15;;;3.90;;
54679;SDS011;40578;53.178;5.846;2023-05-29T08:46:01;15.25;;;4.05;;
54679;SDS011;40578;53.178;5.846;2023-05-29T08:48:28;15.75;;;3.58;;
54679;SDS011;40578;53.178;5.846;2023-05-29T08:50:56;14.27;;;4.13;;
54679;SDS011;40578;53.178;5.846;2023-05-29T08:53:23;13.32;;;3.78;;
54679;SDS011;40578;53.178;5.846;2023-05-29T08:55:51;14.02;;;3.92;;
54679;SDS011;40578;53.178;5.846;2023-05-29T08:58:20;15.80;;;3.47;;
54679;SDS011;40578;53.178;5.846;2023-05-29T09:00:46;14.85;;;3.63;;
54679;SDS011;40578;53.178;5.846;2023-05-29T09:03:13;14.52;;;3.75;;
54679;SDS011;40578;53.178;5.846;2023-05-29T09:05:39;16.77;;;3.80;;
54679;SDS011;40578;53.178;5.846;2023-05-29T09:08:08;12.07;;;3.42;;
54679;SDS011;40578;53.178;5.846;2023-05-29T09:10:35;15.88;;;4.03;;
54679;SDS011;40578;53.178;5.846;2023-05-29T09:13:01;14.83;;;3.67;;
54679;SDS011;40578;53.178;5.846;2023-05-29T09:15:27;22.07;;;4.07;;
54679;SDS011;40578;53.178;5.846;2023-05-29T09:17:54;12.73;;;3.40;;
54679;SDS011;40578;53.178;5.846;2023-05-29T09:20:21;10.32;;;2.80;;
54679;SDS011;40578;53.178;5.846;2023-05-29T09:23:07;17.17;;;4.28;;
54679;SDS011;40578;53.178;5.846;2023-05-29T09:25:35;18.63;;;3.78;;
54679;SDS011;40578;53.178;5.846;2023-05-29T09:28:10;9.85;;;3.40;;
54679;SDS011;40578;53.178;5.846;2023-05-29T09:30:39;15.40;;;3.43;;
54679;SDS011;40578;53.178;5.846;2023-05-29T09:33:06;19.02;;;4.22;;
54679;SDS011;40578;53.178;5.846;2023-05-29T09:35:33;9.88;;;3.13;;
54679;SDS011;40578;53.178;5.846;2023-05-29T09:38:04;14.55;;;3.45;;
54679;SDS011;40578;53.178;5.846;2023-05-29T09:40:40;14.70;;;3.30;;
54679;SDS011;40578;53.178;5.846;2023-05-29T09:43:15;15.82;;;3.20;;
54679;SDS011;40578;53.178;5.846;2023-05-29T09:45:48;10.25;;;3.58;;
54679;SDS011;40578;53.178;5.846;2023-05-29T09:48:16;13.80;;;3.28;;
54679;SDS011;40578;53.178;5.846;2023-05-29T09:50:47;15.13;;;3.80;;
54679;SDS011;40578;53.178;5.846;2023-05-29T09:53:23;15.63;;;3.58;;
54679;SDS011;40578;53.178;5.846;2023-05-29T09:55:53;25.63;;;4.20;;
54679;SDS011;40578;53.178;5.846;2023-05-29T09:58:42;17.90;;;3.67;;
54679;SDS011;40578;53.178;5.846;2023-05-29T10:01:14;16.13;;;3.95;;
54679;SDS011;40578;53.178;5.846;2023-05-29T10:03:43;19.98;;;4.80;;
54679;SDS011;40578;53.178;5.846;2023-05-29T10:06:12;14.70;;;4.00;;
54679;SDS011;40578;53.178;5.846;2023-05-29T10:08:45;18.73;;;3.70;;
54679;SDS011;40578;53.178;5.846;2023-05-29T10:11:16;15.23;;;3.78;;
54679;SDS011;40578;53.178;5.846;2023-05-29T10:13:49;16.48;;;3.50;;
54679;SDS011;40578;53.178;5.846;2023-05-29T10:16:20;11.07;;;3.25;;
54679;SDS011;40578;53.178;5.846;2023-05-29T10:18:51;14.70;;;3.38;;
54679;SDS011;40578;53.178;5.846;2023-05-29T10:21:22;18.63;;;3.35;;
54679;SDS011;40578;53.178;5.846;2023-05-29T10:23:51;9.73;;;3.20;;
54679;SDS011;40578;53.178;5.846;2023-05-29T10:26:24;12.23;;;3.22;;
54679;SDS011;40578;53.178;5.846;2023-05-29T10:37:14;23.73;;;4.03;;
54679;SDS011;40578;53.178;5.846;2023-05-29T10:40:05;14.05;;;3.88;;
54679;SDS011;40578;53.178;5.846;2023-05-29T10:45:08;11.85;;;3.22;;
54679;SDS011;40578;53.178;5.846;2023-05-29T10:47:34;17.55;;;3.20;;
54679;SDS011;40578;53.178;5.846;2023-05-29T10:49:59;13.00;;;3.27;;
54679;SDS011;40578;53.178;5.846;2023-05-29T10:52:26;17.33;;;4.05;;
54679;SDS011;40578;53.178;5.846;2023-05-29T10:54:55;16.15;;;4.05;;
54679;SDS011;40578;53.178;5.846;2023-05-29T10:57:22;14.70;;;3.58;;
54679;SDS011;40578;53.178;5.846;2023-05-29T10:59:56;12.18;;;3.75;;
54679;SDS011;40578;53.178;5.846;2023-05-29T11:02:38;13.90;;;3.10;;
54679;SDS011;40578;53.178;5.846;2023-05-29T11:05:05;10.75;;;3.60;;
54679;SDS011;40578;53.178;5.846;2023-05-29T11:08:18;12.43;;;3.53;;
54679;SDS011;40578;53.178;5.846;2023-05-29T11:13:23;15.30;;;3.92;;
54679;SDS011;40578;53.178;5.846;2023-05-29T11:18:40;13.48;;;3.65;;
54679;SDS011;40578;53.178;5.846;2023-05-29T11:24:25;16.65;;;4.15;;
54679;SDS011;40578;53.178;5.846;2023-05-29T11:26:52;11.43;;;4.10;;
54679;SDS011;40578;53.178;5.846;2023-05-29T11:29:29;13.38;;;3.10;;
54679;SDS011;40578;53.178;5.846;2023-05-29T11:31:57;11.00;;;3.22;;
54679;SDS011;40578;53.178;5.846;2023-05-29T11:34:28;11.15;;;3.55;;
54679;SDS011;40578;53.178;5.846;2023-05-29T11:39:27;10.40;;;2.92;;
54679;SDS011;40578;53.178;5.846;2023-05-29T11:41:53;12.75;;;3.70;;
54679;SDS011;40578;53.178;5.846;2023-05-29T11:44:20;11.25;;;3.45;;
54679;SDS011;40578;53.178;5.846;2023-05-29T11:46:58;11.88;;;3.35;;
54679;SDS011;40578;53.178;5.846;2023-05-29T11:49:29;13.60;;;3.45;;
54679;SDS011;40578;53.178;5.846;2023-05-29T11:52:08;12.32;;;3.47;;
54679;SDS011;40578;53.178;5.846;2023-05-29T11:54:35;10.63;;;3.28;;
54679;SDS011;40578;53.178;5.846;2023-05-29T11:57:02;13.75;;;3.30;;
54679;SDS011;40578;53.178;5.846;2023-05-29T11:59:30;14.57;;;3.40;;
54679;SDS011;40578;53.178;5.846;2023-05-29T12:01:56;11.77;;;3.45;;
54679;SDS011;40578;53.178;5.846;2023-05-29T12:04:22;8.17;;;3.03;;
54679;SDS011;40578;53.178;5.846;2023-05-29T12:06:47;14.17;;;3.60;;
54679;SDS011;40578;53.178;5.846;2023-05-29T12:09:23;12.63;;;3.60;;
54679;SDS011;40578;53.178;5.846;2023-05-29T12:11:50;10.40;;;3.20;;
54679;SDS011;40578;53.178;5.846;2023-05-29T12:14:16;15.00;;;3.67;;
54679;SDS011;40578;53.178;5.846;2023-05-29T12:16:41;9.00;;;3.10;;
54679;SDS011;40578;53.178;5.846;2023-05-29T12:19:07;10.97;;;2.80;;
54679;SDS011;40578;53.178;5.846;2023-05-29T12:21:33;10.10;;;3.57;;
54679;SDS011;40578;53.178;5.846;2023-05-29T12:26:25;18.80;;;3.67;;
54679;SDS011;40578;53.178;5.846;2023-05-29T12:28:51;11.52;;;3.25;;
54679;SDS011;40578;53.178;5.846;2023-05-29T12:31:27;11.93;;;2.90;;
54679;SDS011;40578;53.178;5.846;2023-05-29T12:33:54;15.20;;;3.50;;
54679;SDS011;40578;53.178;5.846;2023-05-29T12:36:26;10.65;;;3.10;;
54679;SDS011;40578;53.178;5.846;2023-05-29T12:38:52;12.57;;;3.10;;
54679;SDS011;40578;53.178;5.846;2023-05-29T12:41:24;10.33;;;3.23;;
54679;SDS011;40578;53.178;5.846;2023-05-29T12:43:56;13.57;;;2.88;;
54679;SDS011;40578;53.178;5.846;2023-05-29T12:46:25;8.90;;;2.63;;
54679;SDS011;40578;53.178;5.846;2023-05-29T12:48:54;8.38;;;2.72;;
54679;SDS011;40578;53.178;5.846;2023-05-29T12:51:25;8.93;;;2.85;;
54679;SDS011;40578;53.178;5.846;2023-05-29T12:53:52;12.00;;;3.22;;
54679;SDS011;40578;53.178;5.846;2023-05-29T12:56:20;10.85;;;3.13;;
54679;SDS011;40578;53.178;5.846;2023-05-29T12:58:48;6.18;;;2.35;;
54679;SDS011;40578;53.178;5.846;2023-05-29T13:01:15;9.30;;;2.63;;
54679;SDS011;40578;53.178;5.846;2023-05-29T13:03:41;12.43;;;3.05;;
54679;SDS011;40578;53.178;5.846;2023-05-29T13:06:06;13.53;;;3.27;;
54679;SDS011;40578;53.178;5.846;2023-05-29T13:08:32;12.32;;;3.30;;
54679;SDS011;40578;53.178;5.846;2023-05-29T13:10:58;11.77;;;3.25;;
54679;SDS011;40578;53.178;5.846;2023-05-29T13:13:24;12.10;;;2.90;;
54679;SDS011;40578;53.178;5.846;2023-05-29T13:15:49;12.27;;;3.10;;
54679;SDS011;40578;53.178;5.846;2023-05-29T13:18:15;12.10;;;2.87;;
54679;SDS011;40578;53.178;5.846;2023-05-29T13:20:41;14.13;;;3.10;;
54679;SDS011;40578;53.178;5.846;2023-05-29T13:23:06;14.07;;;3.30;;
54679;SDS011;40578;53.178;5.846;2023-05-29T13:25:33;12.30;;;3.70;;
54679;SDS011;40578;53.178;5.846;2023-05-29T13:27:59;13.97;;;3.23;;
54679;SDS011;40578;53.178;5.846;2023-05-29T13:30:25;10.47;;;3.30;;
54679;SDS011;40578;53.178;5.846;2023-05-29T13:32:51;12.00;;;3.50;;
54679;SDS011;40578;53.178;5.846;2023-05-29T13:35:18;9.10;;;2.70;;
54679;SDS011;40578;53.178;5.846;2023-05-29T13:37:44;10.80;;;3.58;;
54679;SDS011;40578;53.178;5.846;2023-05-29T13:40:10;14.27;;;3.30;;
54679;SDS011;40578;53.178;5.846;2023-05-29T13:42:38;16.08;;;3.58;;
54679;SDS011;40578;53.178;5.846;2023-05-29T13:45:04;10.07;;;2.75;;
54679;SDS011;40578;53.178;5.846;2023-05-29T13:47:32;10.43;;;2.83;;
54679;SDS011;40578;53.178;5.846;2023-05-29T13:49:58;10.23;;;3.03;;
54679;SDS011;40578;53.178;5.846;2023-05-29T13:52:24;13.63;;;3.38;;
54679;SDS011;40578;53.178;5.846;2023-05-29T13:54:51;9.07;;;2.47;;
54679;SDS011;40578;53.178;5.846;2023-05-29T13:57:16;12.03;;;2.60;;
54679;SDS011;40578;53.178;5.846;2023-05-29T13:59:42;14.43;;;3.50;;
54679;SDS011;40578;53.178;5.846;2023-05-29T14:02:07;12.33;;;2.93;;
54679;SDS011;40578;53.178;5.846;2023-05-29T14:04:33;13.17;;;3.10;;
54679;SDS011;40578;53.178;5.846;2023-05-29T14:06:59;8.13;;;2.70;;
54679;SDS011;40578;53.178;5.846;2023-05-29T14:09:25;6.78;;;2.60;;
54679;SDS011;40578;53.178;5.846;2023-05-29T14:12:00;11.35;;;2.55;;
54679;SDS011;40578;53.178;5.846;2023-05-29T14:14:27;8.15;;;2.78;;
54679;SDS011;40578;53.178;5.846;2023-05-29T14:16:53;10.90;;;3.25;;
54679;SDS011;40578;53.178;5.846;2023-05-29T14:19:19;8.63;;;2.28;;
54679;SDS011;40578;53.178;5.846;2023-05-29T14:21:46;10.75;;;3.05;;
54679;SDS011;40578;53.178;5.846;2023-05-29T14:24:12;10.90;;;2.50;;
54679;SDS011;40578;53.178;5.846;2023-05-29T14:29:03;9.40;;;2.65;;
54679;SDS011;40578;53.178;5.846;2023-05-29T14:31:29;10.47;;;2.90;;
54679;SDS011;40578;53.178;5.846;2023-05-29T14:33:55;6.53;;;2.10;;
54679;SDS011;40578;53.178;5.846;2023-05-29T14:36:21;9.40;;;2.53;;
54679;SDS011;40578;53.178;5.846;2023-05-29T14:38:46;11.07;;;2.93;;
54679;SDS011;40578;53.178;5.846;2023-05-29T14:41:14;11.27;;;2.92;;
54679;SDS011;40578;53.178;5.846;2023-05-29T14:43:41;8.77;;;2.23;;
54679;SDS011;40578;53.178;5.846;2023-05-29T14:46:07;9.85;;;2.45;;
54679;SDS011;40578;53.178;5.846;2023-05-29T14:48:33;8.85;;;2.60;;
54679;SDS011;40578;53.178;5.846;2023-05-29T14:50:59;7.93;;;2.80;;
54679;SDS011;40578;53.178;5.846;2023-05-29T14:53:24;10.13;;;2.70;;
54679;SDS011;40578;53.178;5.846;2023-05-29T14:55:50;8.37;;;2.67;;
54679;SDS011;40578;53.178;5.846;2023-05-29T14:58:16;6.73;;;2.33;;
54679;SDS011;40578;53.178;5.846;2023-05-29T15:00:41;9.30;;;2.47;;
54679;SDS011;40578;53.178;5.846;2023-05-29T15:03:07;10.10;;;2.03;;
54679;SDS011;40578;53.178;5.846;2023-05-29T15:05:33;10.10;;;2.50;;
54679;SDS011;40578;53.178;5.846;2023-05-29T15:07:58;8.00;;;2.73;;
54679;SDS011;40578;53.178;5.846;2023-05-29T15:10:25;12.13;;;3.10;;
54679;SDS011;40578;53.178;5.846;2023-05-29T15:12:52;8.57;;;2.83;;
54679;SDS011;40578;53.178;5.846;2023-05-29T15:15:27;13.23;;;2.90;;
54679;SDS011;40578;53.178;5.846;2023-05-29T15:17:53;12.68;;;2.60;;
54679;SDS011;40578;53.178;5.846;2023-05-29T15:20:22;10.80;;;2.65;;
54679;SDS011;40578;53.178;5.846;2023-05-29T15:22:49;12.18;;;2.90;;
54679;SDS011;40578;53.178;5.846;2023-05-29T15:25:16;10.75;;;2.83;;
54679;SDS011;40578;53.178;5.846;2023-05-29T15:27:42;7.43;;;2.63;;
54679;SDS011;40578;53.178;5.846;2023-05-29T15:30:15;11.68;;;2.75;;